Time;durP1;ratioP1;P1;durP2;ratioP2;P2;SDS_P1;SDS_P2;PMS_P1;PMS_P2;Temp;Humidity;BMP_temperature;BMP_pressure;BME280_temperature;BME280_humidity;BME280_pressure;Samples;Min_cycle;Max_cycle;Signal;HPM_P1;HPM_P2
2021/11/12 00:17:10;;;;;;;72.82;18.55;;;1.50;99.90;;;;;;6748207;88;20204;-80
2021/11/12 00:27:11;;;;;;;53.75;18.45;;;1.60;99.90;;;;;;6712200;88;20180;-80
2021/11/12 00:47:43;;;;;;;43.53;15.77;;;1.80;99.90;;;;;;6694008;89;20222;-79
2021/11/12 00:57:45;;;;;;;35.80;13.20;;;1.80;99.90;;;;;;6693655;89;20224;-78
2021/11/12 01:07:46;;;;;;;35.55;13.93;;;1.90;99.90;;;;;;6692577;89;20191;-79
2021/11/12 01:17:47;;;;;;;31.75;13.10;;;2.00;99.90;;;;;;6704970;88;20193;-80
2021/11/12 01:27:49;;;;;;;25.83;9.95;;;2.00;99.90;;;;;;6748072;88;20189;-79
2021/11/12 01:37:51;;;;;;;28.67;9.60;;;1.90;99.90;;;;;;6711212;88;20203;-79
2021/11/12 02:07:59;;;;;;;28.48;11.48;;;1.80;99.90;;;;;;6738874;88;20990;-80
2021/11/12 02:28:09;;;;;;;29.52;12.00;;;1.90;99.90;;;;;;6759805;88;20213;-77
2021/11/12 02:38:10;;;;;;;32.97;11.82;;;2.00;99.90;;;;;;6754171;88;20195;-77
2021/11/12 02:48:11;;;;;;;31.55;10.68;;;2.10;99.90;;;;;;6754902;88;20169;-77
2021/11/12 02:58:13;;;;;;;35.08;12.32;;;2.30;99.90;;;;;;6758468;88;20181;-77
2021/11/12 03:08:14;;;;;;;34.03;12.10;;;2.60;99.90;;;;;;6758422;88;20284;-77
2021/11/12 03:18:15;;;;;;;32.10;11.90;;;2.70;99.90;;;;;;6757844;88;20205;-78
2021/11/12 03:28:46;;;;;;;32.25;11.48;;;2.90;99.90;;;;;;6757919;88;20502;-78
2021/11/12 06:02:04;;;;;;;18.75;7.28;;;3.30;99.90;;;;;;6733337;88;20685;-79
2021/11/12 06:12:08;;;;;;;21.17;7.07;;;3.20;99.90;;;;;;6736747;88;20615;-79
2021/11/12 06:22:08;;;;;;;14.50;6.32;;;3.20;99.90;;;;;;6736238;88;20246;-79
2021/11/12 06:32:10;;;;;;;8.10;3.28;;;3.00;99.90;;;;;;6733513;88;20776;-78
2021/11/12 06:42:22;;;;;;;13.90;5.47;;;2.90;99.90;;;;;;6734295;88;20199;-79
2021/11/12 06:52:25;;;;;;;11.93;5.35;;;2.80;99.90;;;;;;6734735;88;20174;-78
2021/11/12 07:02:26;;;;;;;14.70;7.22;;;2.80;99.90;;;;;;6739570;88;20303;-80
2021/11/12 07:12:27;;;;;;;10.73;4.30;;;2.90;99.90;;;;;;6735198;88;20302;-79
2021/11/12 07:22:27;;;;;;;12.57;5.57;;;2.80;99.90;;;;;;6744315;88;20252;-79
2021/11/12 07:32:28;;;;;;;17.02;5.40;;;2.70;99.90;;;;;;6726524;88;20230;-78
2021/11/12 07:52:48;;;;;;;20.20;8.57;;;2.80;99.90;;;;;;6725439;88;20479;-79
2021/11/12 08:02:48;;;;;;;10.77;5.37;;;2.80;99.90;;;;;;6746010;88;20220;-84
2021/11/12 08:43:21;;;;;;;18.15;7.43;;;2.90;99.90;;;;;;6738148;88;20181;-80
2021/11/12 08:53:22;;;;;;;18.10;8.43;;;2.90;99.90;;;;;;6754084;88;20231;-80
2021/11/12 09:03:22;;;;;;;11.53;4.53;;;3.00;99.90;;;;;;6755924;88;20218;-80
2021/11/12 09:13:25;;;;;;;18.25;8.32;;;3.10;99.90;;;;;;6757366;88;20551;-81
2021/11/12 09:23:26;;;;;;;13.07;6.12;;;3.10;99.90;;;;;;6763342;87;20153;-81
2021/11/12 09:33:26;;;;;;;19.93;8.50;;;3.30;99.90;;;;;;6765499;88;20231;-82
2021/11/12 09:43:27;;;;;;;19.85;9.25;;;3.40;99.90;;;;;;6766778;88;20526;-82
2021/11/12 09:53:27;;;;;;;21.42;9.38;;;3.50;99.90;;;;;;6765884;88;20219;-80
2021/11/12 10:03:33;;;;;;;13.65;6.35;;;3.60;99.90;;;;;;6766200;88;20200;-80
2021/11/12 10:13:40;;;;;;;17.20;8.53;;;3.50;99.90;;;;;;6746318;88;20533;-80
2021/11/12 10:23:42;;;;;;;21.92;9.80;;;3.70;99.90;;;;;;6746346;88;20223;-80
2021/11/12 10:33:47;;;;;;;16.02;7.47;;;3.80;99.90;;;;;;6749115;88;20201;-81
2021/11/12 10:43:49;;;;;;;13.50;7.05;;;4.20;99.90;;;;;;6729072;88;20222;-79
2021/11/12 10:53:53;;;;;;;16.40;8.18;;;4.60;99.90;;;;;;6728656;88;20194;-80
2021/11/12 11:03:54;;;;;;;16.52;8.80;;;5.20;99.90;;;;;;6726560;88;20229;-80
2021/11/12 11:13:55;;;;;;;16.00;7.62;;;6.60;99.90;;;;;;6741986;88;20590;-81
2021/11/12 11:23:56;;;;;;;16.80;8.90;;;5.90;99.90;;;;;;6745440;88;20193;-80
2021/11/12 11:33:59;;;;;;;14.35;7.45;;;6.30;99.90;;;;;;6737955;88;20178;-79
2021/11/12 11:44:00;;;;;;;18.73;9.05;;;6.80;99.90;;;;;;6744097;88;20166;-79
2021/11/12 11:54:07;;;;;;;16.48;8.15;;;6.10;99.90;;;;;;6757273;88;20219;-80
2021/11/12 12:04:08;;;;;;;16.00;8.52;;;6.80;99.90;;;;;;6758914;88;20222;-80
2021/11/12 12:14:19;;;;;;;12.15;5.70;;;6.70;99.90;;;;;;6758425;88;20185;-79
2021/11/12 12:35:35;;;;;;;6.53;3.60;;;7.80;99.90;;;;;;6742304;88;20173;-78
2021/11/12 13:27:32;;;;;;;15.02;7.75;;;10.90;99.90;;;;;;6715147;88;20222;-79
2021/11/12 13:37:33;;;;;;;14.87;7.70;;;9.30;99.90;;;;;;6737367;88;20205;-80
2021/11/12 13:47:33;;;;;;;13.65;7.90;;;9.10;99.90;;;;;;6760735;88;20750;-80
2021/11/12 13:57:34;;;;;;;14.32;7.78;;;8.70;99.90;;;;;;6755608;88;20201;-80
2021/11/12 14:07:35;;;;;;;14.15;6.57;;;7.90;99.90;;;;;;6758292;88;20180;-80
2021/11/12 14:17:44;;;;;;;15.25;7.40;;;7.40;99.90;;;;;;6759727;88;20220;-81
2021/11/12 14:28:13;;;;;;;11.07;5.75;;;7.40;99.90;;;;;;6777113;77;20220;-79
2021/11/12 14:48:28;;;;;;;14.98;7.70;;;7.40;99.90;;;;;;6766583;88;20160;-79
2021/11/12 14:58:29;;;;;;;12.65;7.32;;;6.70;99.90;;;;;;6725478;88;20199;-78
2021/11/12 15:08:30;;;;;;;10.00;5.28;;;6.50;99.90;;;;;;6738507;88;20903;-81
2021/11/12 15:18:31;;;;;;;18.23;9.73;;;6.20;99.90;;;;;;6766162;88;20882;-79
2021/11/12 15:29:06;;;;;;;;;;;;;;;;;;;;;
2021/11/12 15:39:03;;;;;;;14.27;7.87;;;5.30;99.90;;;;;;6707216;88;20188;-79
2021/11/12 15:49:04;;;;;;;18.87;9.00;;;5.10;99.90;;;;;;6752949;88;20320;-79
2021/11/12 15:59:11;;;;;;;15.33;7.27;;;4.90;99.90;;;;;;6749491;88;20211;-78
2021/11/12 16:19:21;;;;;;;17.42;8.68;;;4.50;99.90;;;;;;6750638;88;20751;-79
2021/11/12 16:40:20;;;;;;;;;;;;;;;;;;;;;
2021/11/12 16:50:06;;;;;;;14.25;6.40;;;4.30;99.90;;;;;;6745664;88;20184;-77
2021/11/12 17:10:45;;;;;;;16.40;8.18;;;4.20;99.90;;;;;;6732512;88;20166;-77
2021/11/12 21:50:54;;;;;;;20.62;9.57;;;4.00;99.90;;;;;;6766544;88;20207;-78
2021/11/12 22:00:57;;;;;;;15.25;5.95;;;4.00;99.90;;;;;;6761382;88;20302;-78
2021/11/12 22:11:00;;;;;;;17.27;8.77;;;4.20;99.90;;;;;;6763992;88;20218;-79
2021/11/12 22:21:02;;;;;;;10.57;5.47;;;4.20;99.90;;;;;;6764517;88;20204;-77
2021/11/12 22:31:04;;;;;;;15.75;7.93;;;4.00;99.90;;;;;;6760842;88;20296;-80
2021/11/12 22:41:05;;;;;;;14.87;7.10;;;3.90;99.90;;;;;;6764608;88;20213;-77
2021/11/12 22:51:06;;;;;;;16.52;7.90;;;3.70;99.90;;;;;;6744293;88;20610;-78
2021/11/12 23:01:17;;;;;;;16.58;7.85;;;3.50;99.90;;;;;;6753924;88;20205;-79
2021/11/12 23:11:19;;;;;;;15.38;6.95;;;3.40;99.90;;;;;;6775409;87;20176;-77
2021/11/12 23:21:21;;;;;;;15.10;8.30;;;3.40;99.90;;;;;;6764296;88;20160;-78
2021/11/12 23:31:24;;;;;;;17.95;7.78;;;3.40;99.90;;;;;;6763886;87;20209;-78
2021/11/12 23:41:25;;;;;;;10.30;4.75;;;3.40;99.90;;;;;;6750650;87;20686;-77
2021/11/12 23:51:26;;;;;;;16.08;7.55;;;3.60;99.90;;;;;;6743840;88;20215;-78
